Aviation Digital Data Service (ADDS)

Output produced by METARs form (0605 UTC 18 January 2018)
found at http://www.aviationweather.gov/adds/metars/
 
METAR text: KLVK 180553Z AUTO 00000KT 3SM BR OVC003 12/11 A3018 RMK AO2 SLP219 T01170111 10150 20111 53002
Conditions at: KLVK (LIVERMORE , CA, US) observed 0553 UTC 18 January 2018
Temperature: 11.7°C (53°F)
Dewpoint: 11.1°C (52°F) [RH = 96%]
Pressure (altimeter): 30.18 inches Hg (1022.1 mb)
[Sea-level pressure: 1021.9 mb]
Winds: calm
Visibility: 3 miles (5 km)
Ceiling: 300 feet AGL
Clouds: overcast cloud deck at 300 feet AGL
Weather: BR  (mist)

METAR text: KLVK 180453Z 00000KT 4SM BR OVC004 12/11 A3016 RMK AO2 SLP213 T01170111
Conditions at: KLVK (LIVERMORE , CA, US) observed 0453 UTC 18 January 2018
Temperature: 11.7°C (53°F)
Dewpoint: 11.1°C (52°F) [RH = 96%]
Pressure (altimeter): 30.16 inches Hg (1021.4 mb)
[Sea-level pressure: 1021.3 mb]
Winds: calm
Visibility: 4 miles (6 km)
Ceiling: 400 feet AGL
Clouds: overcast cloud deck at 400 feet AGL
Weather: BR  (mist)

METAR text: KLVK 180353Z 06006KT 3SM BR OVC003 11/11 A3016 RMK AO2 SLP211 T01110111
Conditions at: KLVK (LIVERMORE , CA, US) observed 0353 UTC 18 January 2018
Temperature: 11.1°C (52°F)
Dewpoint: 11.1°C (52°F) [RH = 100%]
Pressure (altimeter): 30.16 inches Hg (1021.4 mb)
[Sea-level pressure: 1021.1 mb]
Winds: from the ENE (60 degrees) at 7 MPH (6 knots; 3.1 m/s)
Visibility: 3 miles (5 km)
Ceiling: 300 feet AGL
Clouds: overcast cloud deck at 300 feet AGL
Weather: BR  (mist)

METAR text: KLVK 180344Z 07006KT 3SM BR OVC002 11/11 A3015 RMK AO2 T01110111
Conditions at: KLVK (LIVERMORE , CA, US) observed 0344 UTC 18 January 2018
Temperature: 11.1°C (52°F)
Dewpoint: 11.1°C (52°F) [RH = 100%]
Pressure (altimeter): 30.15 inches Hg (1021.1 mb)
Winds: from the ENE (70 degrees) at 7 MPH (6 knots; 3.1 m/s)
Visibility: 3 miles (5 km)
Ceiling: 200 feet AGL
Clouds: overcast cloud deck at 200 feet AGL
Weather: BR  (mist)

METAR text: KLVK 180321Z 07008KT 1 3/4SM BR BKN003 OVC010 11/11 A3016 RMK AO2 T01110111
Conditions at: KLVK (LIVERMORE , CA, US) observed 0321 UTC 18 January 2018
Temperature: 11.1°C (52°F)
Dewpoint: 11.1°C (52°F) [RH = 100%]
Pressure (altimeter): 30.16 inches Hg (1021.4 mb)
Winds: from the ENE (70 degrees) at 9 MPH (8 knots; 4.2 m/s)
Visibility: 1.75 miles (2.82 km)
Ceiling: 300 feet AGL
Clouds: broken clouds at 300 feet AGL
overcast cloud deck at 1000 feet AGL
Weather: BR  (mist)

METAR text: KLVK 180253Z 06006KT 3SM BR BKN003 OVC010 11/11 A3017 RMK AO2 SLP217 T01110111 56006
Conditions at: KLVK (LIVERMORE , CA, US) observed 0253 UTC 18 January 2018
Temperature: 11.1°C (52°F)
Dewpoint: 11.1°C (52°F) [RH = 100%]
Pressure (altimeter): 30.17 inches Hg (1021.8 mb)
[Sea-level pressure: 1021.7 mb]
Winds: from the ENE (60 degrees) at 7 MPH (6 knots; 3.1 m/s)
Visibility: 3 miles (5 km)
Ceiling: 300 feet AGL
Clouds: broken clouds at 300 feet AGL
overcast cloud deck at 1000 feet AGL
Weather: BR  (mist)

METAR text: KLVK 180241Z 06006KT 4SM BR BKN003 11/11 A3018 RMK AO2 T01110111
Conditions at: KLVK (LIVERMORE , CA, US) observed 0241 UTC 18 January 2018
Temperature: 11.1°C (52°F)
Dewpoint: 11.1°C (52°F) [RH = 100%]
Pressure (altimeter): 30.18 inches Hg (1022.1 mb)
Winds: from the ENE (60 degrees) at 7 MPH (6 knots; 3.1 m/s)
Visibility: 4 miles (6 km)
Ceiling: 300 feet AGL
Clouds: broken clouds at 300 feet AGL
Weather: BR  (mist)

METAR text: KLVK 180227Z 06009KT 4SM BR SCT003 11/11 A3018 RMK AO2 T01110111
Conditions at: KLVK (LIVERMORE , CA, US) observed 0227 UTC 18 January 2018
Temperature: 11.1°C (52°F)
Dewpoint: 11.1°C (52°F) [RH = 100%]
Pressure (altimeter): 30.18 inches Hg (1022.1 mb)
Winds: from the ENE (60 degrees) at 10 MPH (9 knots; 4.7 m/s)
Visibility: 4 miles (6 km)
Ceiling: at least 12,000 feet AGL
Clouds: scattered clouds at 300 feet AGL
Weather: BR  (mist)

METAR text: KLVK 180153Z 06005KT 8SM CLR 12/11 A3018 RMK AO2 SLP218 T01170111
Conditions at: KLVK (LIVERMORE , CA, US) observed 0153 UTC 18 January 2018
Temperature: 11.7°C (53°F)
Dewpoint: 11.1°C (52°F) [RH = 96%]
Pressure (altimeter): 30.18 inches Hg (1022.1 mb)
[Sea-level pressure: 1021.8 mb]
Winds: from the ENE (60 degrees) at 6 MPH (5 knots; 2.6 m/s)
Visibility: 8 miles (13 km)
Ceiling: at least 12,000 feet AGL
Clouds: sky clear below 12,000 feet AGL
Weather: no significant weather observed at this time

METAR text: KLVK 180053Z 07004KT 10SM CLR 14/12 A3017 RMK AO2 SLP218 T01390117
Conditions at: KLVK (LIVERMORE , CA, US) observed 0053 UTC 18 January 2018
Temperature: 13.9°C (57°F)
Dewpoint: 11.7°C (53°F) [RH = 87%]
Pressure (altimeter): 30.17 inches Hg (1021.8 mb)
[Sea-level pressure: 1021.8 mb]
Winds: from the ENE (70 degrees) at 5 MPH (4 knots; 2.1 m/s)
Visibility: 10 or more miles (16+ km)
Ceiling: at least 12,000 feet AGL
Clouds: sky clear below 12,000 feet AGL
Weather: no significant weather observed at this time

METAR text: KLVK 172353Z 03004KT 10SM CLR 15/12 A3019 RMK AO2 SLP223 T01500117 10150 20117 56015
Conditions at: KLVK (LIVERMORE , CA, US) observed 2353 UTC 17 January 2018
Temperature: 15.0°C (59°F)
Dewpoint: 11.7°C (53°F) [RH = 81%]
Pressure (altimeter): 30.19 inches Hg (1022.4 mb)
[Sea-level pressure: 1022.3 mb]
Winds: from the NNE (30 degrees) at 5 MPH (4 knots; 2.1 m/s)
Visibility: 10 or more miles (16+ km)
Ceiling: at least 12,000 feet AGL
Clouds: sky clear below 12,000 feet AGL
Weather: no significant weather observed at this time

METAR text: KLVK 172253Z 13004KT 10SM CLR 15/12 A3020 RMK AO2 SLP226 T01500117
Conditions at: KLVK (LIVERMORE , CA, US) observed 2253 UTC 17 January 2018
Temperature: 15.0°C (59°F)
Dewpoint: 11.7°C (53°F) [RH = 81%]
Pressure (altimeter): 30.20 inches Hg (1022.8 mb)
[Sea-level pressure: 1022.6 mb]
Winds: from the SE (130 degrees) at 5 MPH (4 knots; 2.1 m/s)
Visibility: 10 or more miles (16+ km)
Ceiling: at least 12,000 feet AGL
Clouds: sky clear below 12,000 feet AGL
Weather: no significant weather observed at this time

METAR text: KLVK 172237Z 12003KT 10SM FEW012 14/12 A3020 RMK AO2 T01440117 $
Conditions at: KLVK (LIVERMORE , CA, US) observed 2237 UTC 17 January 2018
Temperature: 14.4°C (58°F)
Dewpoint: 11.7°C (53°F) [RH = 84%]
Pressure (altimeter): 30.20 inches Hg (1022.8 mb)
Winds: from the ESE (120 degrees) at 3 MPH (3 knots; 1.6 m/s)
Visibility: 10 or more miles (16+ km)
Ceiling: at least 12,000 feet AGL
Clouds: few clouds at 1200 feet AGL
Weather:
SOME DATA ABOVE MAY BE INACCURATE!!!
"$" is an indication the sensor requires maintenance